createdAt,value
2023-03-01T00:00:05.408Z,95.50
2023-03-01T00:02:33.609Z,95.50
2023-03-01T00:05:01.646Z,95.50
2023-03-01T00:07:29.732Z,95.50
2023-03-01T00:09:59.097Z,95.50
2023-03-01T00:12:27.228Z,95.50
2023-03-01T00:14:55.225Z,95.50
2023-03-01T00:17:23.279Z,95.50
2023-03-01T00:19:51.381Z,95.50
2023-03-01T00:22:19.369Z,95.50
2023-03-01T00:24:47.665Z,95.50
2023-03-01T00:27:17.074Z,95.50
2023-03-01T00:29:45.089Z,95.50
2023-03-01T00:32:13.108Z,95.50
2023-03-01T00:34:41.226Z,95.50
2023-03-01T00:37:09.262Z,95.50
2023-03-01T00:39:37.280Z,95.50
2023-03-01T00:42:05.688Z,95.50
2023-03-01T00:44:35.359Z,95.50
2023-03-01T00:47:03.343Z,95.50
2023-03-01T00:49:31.496Z,95.50
2023-03-01T00:51:59.478Z,95.50
2023-03-01T00:54:27.589Z,95.50
2023-03-01T00:56:55.622Z,95.50
2023-03-01T00:59:23.788Z,95.50
2023-03-01T01:01:53.215Z,95.50
2023-03-01T01:04:21.223Z,95.50
2023-03-01T01:06:49.230Z,95.50
2023-03-01T01:09:19.318Z,95.50
2023-03-01T01:11:48.615Z,95.50
2023-03-01T01:14:16.850Z,95.50
2023-03-01T01:16:45.012Z,95.50
2023-03-01T01:19:15.304Z,95.50
2023-03-01T01:21:44.084Z,95.50
2023-03-01T01:24:12.741Z,95.50
2023-03-01T01:26:41.081Z,95.50
2023-03-01T01:29:09.494Z,95.50
2023-03-01T01:31:39.492Z,95.50
2023-03-01T01:34:10.035Z,95.50
2023-03-01T01:36:39.503Z,95.50
2023-03-01T01:39:08.000Z,95.50
2023-03-01T01:41:36.042Z,95.50
2023-03-01T01:44:16.726Z,95.50
2023-03-01T01:46:48.840Z,95.50
2023-03-01T01:49:25.989Z,95.50
2023-03-01T01:52:01.700Z,95.50
2023-03-01T01:54:33.590Z,95.50
2023-03-01T01:57:05.955Z,95.50
2023-03-01T01:59:35.241Z,95.50
2023-03-01T02:02:05.409Z,95.50
2023-03-01T02:04:34.921Z,95.50
2023-03-01T02:07:11.184Z,95.50
2023-03-01T02:09:39.827Z,95.50
2023-03-01T02:12:08.148Z,95.50
2023-03-01T02:14:36.172Z,95.50
2023-03-01T02:17:04.296Z,95.50
2023-03-01T02:19:45.937Z,95.50
2023-03-01T02:22:24.083Z,95.50
2023-03-01T02:25:03.251Z,95.50
2023-03-01T02:27:38.838Z,95.50
2023-03-01T02:30:13.255Z,95.50
2023-03-01T02:32:42.660Z,95.50
2023-03-01T02:35:12.952Z,95.50
2023-03-01T02:37:41.942Z,95.50
2023-03-01T02:40:13.645Z,95.50
2023-03-01T02:42:49.390Z,95.50
2023-03-01T02:45:19.121Z,95.50
2023-03-01T02:47:47.217Z,95.50
2023-03-01T02:50:27.167Z,95.50
2023-03-01T02:52:59.666Z,95.50
2023-03-01T02:55:28.410Z,95.50
2023-03-01T02:57:57.809Z,95.50
2023-03-01T03:00:34.146Z,95.50
2023-03-01T03:03:02.189Z,95.50
2023-03-01T03:05:32.269Z,95.50
2023-03-01T03:08:01.486Z,95.50
2023-03-01T03:10:31.773Z,95.50
2023-03-01T03:13:02.056Z,95.50
2023-03-01T03:15:31.531Z,95.50
2023-03-01T03:18:00.612Z,95.50
2023-03-01T03:20:30.131Z,95.50
2023-03-01T03:23:00.102Z,95.50
2023-03-01T03:25:29.627Z,95.50
2023-03-01T03:27:59.033Z,95.50
2023-03-01T03:30:29.953Z,95.50
2023-03-01T03:33:00.723Z,95.50
2023-03-01T03:35:31.254Z,95.50
2023-03-01T03:38:07.221Z,95.50
2023-03-01T03:40:37.537Z,95.50
2023-03-01T03:43:06.882Z,95.50
2023-03-01T03:45:36.060Z,95.50
2023-03-01T03:48:07.365Z,95.50
2023-03-01T03:50:35.974Z,95.50
2023-03-01T03:53:06.253Z,95.50
2023-03-01T03:55:34.878Z,95.50
2023-03-01T03:58:07.845Z,95.50
2023-03-01T04:00:36.716Z,95.50
2023-03-01T04:03:06.486Z,95.50
2023-03-01T04:05:34.620Z,95.50
2023-03-01T04:08:08.029Z,95.50
2023-03-01T04:10:38.400Z,95.50
2023-03-01T04:13:06.946Z,95.50
2023-03-01T04:15:35.859Z,95.50
2023-03-01T04:18:05.884Z,95.50
2023-03-01T04:20:36.887Z,95.50
2023-03-01T04:23:14.181Z,95.50
2023-03-01T04:25:43.844Z,95.50
2023-03-01T04:28:12.246Z,95.50
2023-03-01T04:30:42.376Z,95.50
2023-03-01T04:33:13.068Z,95.50
2023-03-01T04:35:41.506Z,95.50
2023-03-01T04:38:10.184Z,95.50
2023-03-01T04:40:39.060Z,95.50
2023-03-01T04:43:07.348Z,95.50
2023-03-01T04:45:36.648Z,95.50
2023-03-01T04:48:05.899Z,95.50
2023-03-01T04:50:35.526Z,95.50
2023-03-01T04:53:03.626Z,95.50
2023-03-01T04:55:32.573Z,95.50
2023-03-01T04:58:00.792Z,95.50
2023-03-01T05:00:28.968Z,95.50
2023-03-01T05:03:00.228Z,95.50
2023-03-01T05:05:30.521Z,95.50
2023-03-01T05:08:01.388Z,95.50
2023-03-01T05:10:31.191Z,95.50
2023-03-01T05:12:59.591Z,95.50
2023-03-01T05:15:28.834Z,95.50
2023-03-01T05:17:59.614Z,95.50
2023-03-01T05:20:28.107Z,95.50
2023-03-01T05:23:00.635Z,95.50
2023-03-01T05:25:33.974Z,95.50
2023-03-01T05:28:05.232Z,95.50
2023-03-01T05:30:33.952Z,95.50
2023-03-01T05:33:02.122Z,95.50
2023-03-01T05:35:33.545Z,95.50
2023-03-01T05:38:02.956Z,95.50
2023-03-01T05:40:31.114Z,95.50
2023-03-01T05:42:59.379Z,95.50
2023-03-01T05:45:28.835Z,95.50
2023-03-01T05:47:57.097Z,95.50
2023-03-01T05:50:27.039Z,95.50
2023-03-01T05:53:00.229Z,95.50
2023-03-01T05:55:31.523Z,95.50
2023-03-01T05:58:01.012Z,95.50
2023-03-01T06:00:29.923Z,95.50
2023-03-01T06:02:58.647Z,95.50
2023-03-01T06:05:27.178Z,95.50
2023-03-01T06:07:55.632Z,95.50
2023-03-01T06:10:24.412Z,95.50
2023-03-01T06:12:53.884Z,95.50
2023-03-01T06:15:22.779Z,95.50
2023-03-01T06:17:51.240Z,95.50
2023-03-01T06:20:21.457Z,95.50
2023-03-01T06:22:50.727Z,95.50
2023-03-01T06:25:21.326Z,95.50
2023-03-01T06:27:50.609Z,95.50
2023-03-01T06:30:24.961Z,95.50
2023-03-01T06:32:53.113Z,95.50
2023-03-01T06:35:21.559Z,95.50
2023-03-01T06:37:49.862Z,95.50
2023-03-01T06:40:18.332Z,95.50
2023-03-01T06:42:50.961Z,95.50
2023-03-01T06:45:20.528Z,95.50
2023-03-01T06:47:50.138Z,95.50
2023-03-01T06:50:19.652Z,95.50
2023-03-01T06:52:50.561Z,95.50
2023-03-01T06:55:18.743Z,95.50
2023-03-01T06:57:47.224Z,95.50
2023-03-01T07:00:16.727Z,95.50
2023-03-01T07:02:44.818Z,95.50
2023-03-01T07:05:14.174Z,95.50
2023-03-01T07:07:42.206Z,95.50
2023-03-01T07:10:12.875Z,95.50
2023-03-01T07:12:43.928Z,95.50
2023-03-01T07:15:12.834Z,95.50
2023-03-01T07:17:40.759Z,95.50
2023-03-01T07:20:09.796Z,95.50
2023-03-01T07:22:41.194Z,95.50
2023-03-01T07:25:10.056Z,95.50
2023-03-01T07:27:38.176Z,95.50
2023-03-01T07:30:07.526Z,95.50
2023-03-01T07:32:35.862Z,95.50
2023-03-01T07:35:04.136Z,95.50
2023-03-01T07:37:32.252Z,95.50
2023-03-01T07:40:01.671Z,95.50
2023-03-01T07:42:29.809Z,95.50
2023-03-01T07:44:57.891Z,95.50
2023-03-01T07:47:25.901Z,95.50
2023-03-01T07:49:54.002Z,95.50
2023-03-01T07:52:21.971Z,95.50
2023-03-01T07:54:50.019Z,95.50
2023-03-01T07:57:19.394Z,95.50
2023-03-01T07:59:47.487Z,95.50
2023-03-01T08:02:16.068Z,95.50
2023-03-01T08:04:44.240Z,95.50
2023-03-01T08:07:12.597Z,95.50
2023-03-01T08:09:40.686Z,95.50
2023-03-01T08:12:08.954Z,95.50
2023-03-01T08:14:42.015Z,95.50
2023-03-01T08:17:10.117Z,95.50
2023-03-01T08:19:38.397Z,95.50
2023-03-01T08:22:06.607Z,95.50
2023-03-01T08:24:34.656Z,95.50
2023-03-01T08:27:03.755Z,95.50
2023-03-01T08:29:33.060Z,95.50
2023-03-01T08:32:02.956Z,95.50
2023-03-01T08:34:32.228Z,95.50
2023-03-01T08:37:00.287Z,95.40
2023-03-01T08:39:28.386Z,95.30
2023-03-01T08:41:56.533Z,95.50
2023-03-01T08:44:24.672Z,95.50
2023-03-01T08:46:54.194Z,94.90
2023-03-01T08:49:23.881Z,94.80
2023-03-01T08:51:52.035Z,94.70
2023-03-01T08:54:22.712Z,94.70
2023-03-01T08:56:51.155Z,94.60
2023-03-01T08:59:20.388Z,94.30
2023-03-01T09:01:48.595Z,94.00
2023-03-01T09:04:17.378Z,93.50
2023-03-01T09:06:46.783Z,93.60
2023-03-01T09:09:17.191Z,93.60
2023-03-01T09:11:47.163Z,93.00
2023-03-01T09:14:15.863Z,93.10
2023-03-01T09:16:44.376Z,93.10
2023-03-01T09:19:12.890Z,92.80
2023-03-01T09:21:41.590Z,92.80
2023-03-01T09:24:15.251Z,92.40
2023-03-01T09:26:43.891Z,92.70
2023-03-01T09:29:12.105Z,92.60
2023-03-01T09:31:40.647Z,91.90
2023-03-01T09:34:09.845Z,91.60
2023-03-01T09:36:38.776Z,91.50
2023-03-01T09:39:07.987Z,91.10
2023-03-01T09:41:47.618Z,91.40
2023-03-01T09:44:28.238Z,91.40
2023-03-01T09:46:58.095Z,91.30
2023-03-01T09:49:28.473Z,91.10
2023-03-01T09:52:00.575Z,90.60
2023-03-01T09:54:29.181Z,90.30
2023-03-01T09:57:21.393Z,90.40
2023-03-01T10:00:05.341Z,89.80
2023-03-01T10:02:41.253Z,89.40
2023-03-01T10:05:23.732Z,89.10
2023-03-01T10:08:04.445Z,88.60
2023-03-01T10:10:37.267Z,89.10
2023-03-01T10:13:16.253Z,88.60
2023-03-01T10:15:49.816Z,88.20
2023-03-01T10:18:21.889Z,87.60
2023-03-01T10:20:55.515Z,86.20
2023-03-01T10:23:26.304Z,86.40
2023-03-01T10:26:10.979Z,86.20
2023-03-01T10:28:49.357Z,86.30
2023-03-01T10:31:23.221Z,85.70
2023-03-01T10:33:55.864Z,85.20
2023-03-01T10:36:24.038Z,82.90
2023-03-01T10:38:54.988Z,78.80
2023-03-01T10:41:25.356Z,76.80
2023-03-01T10:43:56.617Z,74.70
2023-03-01T10:46:28.029Z,74.50
2023-03-01T10:49:09.270Z,75.10
2023-03-01T10:51:37.680Z,78.70
2023-03-01T10:54:08.395Z,81.10
2023-03-01T10:56:50.636Z,82.30
2023-03-01T10:59:30.670Z,83.30
2023-03-01T11:02:25.524Z,83.30
2023-03-01T11:05:02.461Z,83.10
2023-03-01T11:07:31.641Z,82.00
2023-03-01T11:09:59.743Z,80.50
2023-03-01T11:12:30.731Z,80.10
2023-03-01T11:15:00.264Z,79.70
2023-03-01T11:17:36.617Z,78.90
2023-03-01T11:20:18.595Z,76.30
2023-03-01T11:22:51.851Z,75.30
2023-03-01T11:25:25.476Z,74.40
2023-03-01T11:27:55.266Z,73.80
2023-03-01T11:30:29.117Z,74.00
2023-03-01T11:33:26.196Z,75.40
2023-03-01T11:36:02.302Z,76.40
2023-03-01T11:38:32.877Z,76.80
2023-03-01T11:41:08.718Z,76.90
2023-03-01T11:43:46.831Z,76.10
2023-03-01T11:46:44.280Z,75.70
2023-03-01T11:49:29.517Z,76.60
2023-03-01T11:52:05.929Z,76.70
2023-03-01T11:54:48.639Z,75.80
2023-03-01T11:57:42.844Z,74.90
2023-03-01T12:00:33.006Z,74.80
2023-03-01T12:03:33.023Z,74.50
2023-03-01T12:06:27.637Z,73.70
2023-03-01T12:09:06.837Z,72.40
2023-03-01T12:11:45.729Z,70.40
2023-03-01T12:14:46.985Z,70.30
2023-03-01T12:17:45.265Z,71.80
2023-03-01T12:20:34.400Z,72.60
2023-03-01T12:23:28.180Z,72.20
2023-03-01T12:26:04.604Z,70.80
2023-03-01T12:28:56.751Z,70.30
2023-03-01T12:31:54.548Z,70.40
2023-03-01T12:34:46.850Z,70.90
2023-03-01T12:37:26.740Z,70.10
2023-03-01T12:40:08.765Z,70.40
2023-03-01T12:42:48.482Z,71.40
2023-03-01T12:45:34.582Z,72.40
2023-03-01T12:48:20.743Z,73.00
2023-03-01T12:50:52.508Z,71.70
2023-03-01T12:53:26.085Z,71.40
2023-03-01T12:55:56.934Z,69.90
2023-03-01T12:58:43.440Z,69.70
2023-03-01T13:01:39.483Z,69.30
2023-03-01T13:04:35.292Z,68.80
2023-03-01T13:07:21.557Z,69.40
2023-03-01T13:10:02.350Z,69.70
2023-03-01T13:12:46.462Z,70.00
2023-03-01T13:15:35.163Z,69.80
2023-03-01T13:18:05.602Z,69.90
2023-03-01T13:20:36.671Z,69.90
2023-03-01T13:23:13.134Z,70.20
2023-03-01T13:26:04.650Z,70.60
2023-03-01T13:28:57.014Z,71.80
2023-03-01T13:32:05.912Z,72.80
2023-03-01T13:34:49.106Z,72.60
2023-03-01T13:37:35.796Z,71.50
2023-03-01T13:40:25.544Z,70.70
2023-03-01T13:43:05.153Z,71.70
2023-03-01T13:45:42.058Z,72.60
2023-03-01T13:48:17.122Z,74.50
2023-03-01T13:50:49.935Z,74.90
2023-03-01T13:53:20.829Z,75.10
2023-03-01T13:55:50.786Z,75.40
2023-03-01T13:58:24.378Z,75.60
2023-03-01T14:00:58.922Z,75.90
2023-03-01T14:03:28.003Z,76.10
2023-03-01T14:06:17.244Z,76.30
2023-03-01T14:08:48.136Z,76.60
2023-03-01T14:11:42.795Z,76.80
2023-03-01T14:14:25.984Z,76.90
2023-03-01T14:17:53.589Z,77.20
2023-03-01T14:20:23.732Z,77.30
2023-03-01T14:22:55.138Z,77.90
2023-03-01T14:25:30.910Z,78.50
2023-03-01T14:28:04.716Z,78.80
2023-03-01T14:30:38.804Z,79.00
2023-03-01T14:33:19.611Z,79.20
2023-03-01T14:35:55.694Z,79.00
2023-03-01T14:38:25.184Z,79.10
2023-03-01T14:40:57.031Z,79.00
2023-03-01T14:43:26.793Z,79.30
2023-03-01T14:45:56.349Z,79.20
2023-03-01T14:48:25.071Z,79.30
2023-03-01T14:50:53.346Z,79.70
2023-03-01T14:53:29.119Z,79.90
2023-03-01T14:56:03.250Z,80.10
2023-03-01T14:58:34.361Z,80.10
2023-03-01T15:01:06.193Z,80.20
2023-03-01T15:03:38.016Z,80.40
2023-03-01T15:06:08.517Z,80.40
2023-03-01T15:08:39.035Z,80.00
2023-03-01T15:11:19.070Z,80.00
2023-03-01T15:13:48.355Z,80.10
2023-03-01T15:16:20.944Z,80.30
2023-03-01T15:18:50.436Z,80.40
2023-03-01T15:21:21.749Z,80.40
2023-03-01T15:23:54.358Z,80.50
2023-03-01T15:26:30.450Z,80.80
2023-03-01T15:29:01.262Z,81.20
2023-03-01T15:31:38.347Z,81.20
2023-03-01T15:34:24.320Z,81.30
2023-03-01T15:36:54.274Z,81.40
2023-03-01T15:39:38.431Z,81.60
2023-03-01T15:42:09.186Z,81.60
2023-03-01T15:44:43.671Z,81.70
2023-03-01T15:47:31.031Z,81.40
2023-03-01T15:50:01.265Z,81.50
2023-03-01T15:52:31.713Z,81.70
2023-03-01T15:55:02.613Z,81.60
2023-03-01T15:57:30.712Z,81.50
2023-03-01T15:59:58.822Z,81.10
2023-03-01T16:02:28.273Z,81.00
2023-03-01T16:04:57.452Z,80.90
2023-03-01T16:07:27.855Z,81.10
2023-03-01T16:09:57.279Z,81.40
2023-03-01T16:12:25.637Z,81.30
2023-03-01T16:14:53.991Z,81.20
2023-03-01T16:17:22.003Z,81.20
2023-03-01T16:19:51.450Z,81.40
2023-03-01T16:22:25.700Z,81.40
2023-03-01T16:24:53.815Z,81.50
2023-03-01T16:27:21.751Z,81.60
2023-03-01T16:29:49.909Z,81.70
2023-03-01T16:32:17.947Z,81.70
2023-03-01T16:34:46.074Z,82.00
2023-03-01T16:37:15.541Z,82.40
2023-03-01T16:39:43.671Z,82.60
2023-03-01T16:42:11.826Z,83.10
2023-03-01T16:44:40.928Z,83.20
2023-03-01T16:47:09.031Z,83.20
2023-03-01T16:49:37.400Z,83.40
2023-03-01T16:52:08.104Z,83.80
2023-03-01T16:54:37.605Z,83.90
2023-03-01T16:57:05.994Z,84.00
2023-03-01T16:59:34.173Z,84.30
2023-03-01T17:02:02.227Z,84.40
2023-03-01T17:04:30.791Z,84.70
2023-03-01T17:06:58.827Z,84.90
2023-03-01T17:09:26.867Z,85.40
2023-03-01T17:11:56.950Z,85.70
2023-03-01T17:14:25.248Z,85.80
2023-03-01T17:16:56.361Z,85.80
2023-03-01T17:19:24.623Z,85.90
2023-03-01T17:21:52.844Z,86.30
2023-03-01T17:24:20.818Z,86.10
2023-03-01T17:26:48.883Z,86.10
2023-03-01T17:29:19.035Z,86.40
2023-03-01T17:31:47.230Z,86.90
2023-03-01T17:34:16.146Z,87.30
2023-03-01T17:36:46.837Z,87.40
2023-03-01T17:39:15.017Z,87.60
2023-03-01T17:41:43.118Z,87.80
2023-03-01T17:44:11.096Z,88.10
2023-03-01T17:46:40.629Z,88.40
2023-03-01T17:49:08.642Z,88.80
2023-03-01T17:51:38.418Z,89.00
2023-03-01T17:54:07.055Z,89.10
2023-03-01T17:56:38.670Z,89.40
2023-03-01T17:59:07.183Z,89.10
2023-03-01T18:01:35.718Z,89.70
2023-03-01T18:04:05.452Z,89.80
2023-03-01T18:06:34.063Z,89.50
2023-03-01T18:09:02.234Z,89.40
2023-03-01T18:11:31.087Z,89.40
2023-03-01T18:14:02.662Z,89.40
2023-03-01T18:16:40.003Z,89.70
2023-03-01T18:19:15.706Z,90.10
2023-03-01T18:21:53.760Z,90.20
2023-03-01T18:25:02.052Z,90.10
2023-03-01T18:27:39.775Z,90.00
2023-03-01T18:30:17.215Z,89.90
2023-03-01T18:32:49.619Z,90.10
2023-03-01T18:35:19.416Z,90.30
2023-03-01T18:37:52.472Z,90.50
2023-03-01T18:40:21.077Z,90.80
2023-03-01T18:42:53.990Z,91.00
2023-03-01T18:45:24.758Z,91.30
2023-03-01T18:47:52.844Z,91.30
2023-03-01T18:50:22.236Z,91.50
2023-03-01T18:52:50.450Z,91.50
2023-03-01T18:55:18.731Z,92.10
2023-03-01T18:57:46.853Z,92.00
2023-03-01T19:00:16.041Z,91.80
2023-03-01T19:02:50.863Z,92.20
2023-03-01T19:05:19.059Z,92.30
2023-03-01T19:07:48.493Z,92.40
2023-03-01T19:10:16.915Z,92.60
2023-03-01T19:12:44.912Z,93.00
2023-03-01T19:15:13.697Z,93.20
2023-03-01T19:17:41.813Z,93.30
2023-03-01T19:20:11.476Z,93.40
2023-03-01T19:22:40.116Z,93.00
2023-03-01T19:25:10.924Z,93.80
2023-03-01T19:27:38.957Z,94.20
2023-03-01T19:30:08.745Z,94.50
2023-03-01T19:32:36.862Z,95.00
2023-03-01T19:35:05.778Z,95.10
2023-03-01T19:37:35.392Z,95.10
2023-03-01T19:40:03.761Z,94.60
2023-03-01T19:42:33.244Z,94.20
2023-03-01T19:45:01.393Z,94.80
2023-03-01T19:47:29.548Z,95.30
2023-03-01T19:49:57.579Z,95.40
2023-03-01T19:52:26.650Z,95.40
2023-03-01T19:55:00.845Z,95.50
2023-03-01T19:57:38.094Z,95.50
2023-03-01T20:00:07.783Z,95.50
2023-03-01T20:02:36.089Z,95.50
2023-03-01T20:05:04.764Z,95.50
2023-03-01T20:07:33.299Z,95.50
2023-03-01T20:10:01.404Z,95.50
2023-03-01T20:12:29.724Z,95.50
2023-03-01T20:14:59.468Z,95.50
2023-03-01T20:17:27.716Z,95.50
2023-03-01T20:19:56.033Z,95.50
2023-03-01T20:22:24.094Z,95.50
2023-03-01T20:24:52.340Z,95.50
2023-03-01T20:27:20.638Z,95.50
2023-03-01T20:29:49.730Z,95.40
2023-03-01T20:32:19.200Z,95.30
2023-03-01T20:34:47.359Z,95.00
2023-03-01T20:37:15.582Z,94.90
2023-03-01T20:39:43.818Z,95.10
2023-03-01T20:42:12.256Z,95.20
2023-03-01T20:44:44.346Z,95.20
2023-03-01T20:47:12.934Z,95.10
2023-03-01T20:49:42.492Z,95.50
2023-03-01T20:52:10.775Z,95.50
2023-03-01T20:54:38.871Z,95.50
2023-03-01T20:57:06.989Z,95.50
2023-03-01T20:59:35.887Z,95.50
2023-03-01T21:02:03.900Z,95.50
2023-03-01T21:04:31.904Z,95.50
2023-03-01T21:07:01.382Z,95.50
2023-03-01T21:09:29.385Z,95.50
2023-03-01T21:11:57.804Z,95.50
2023-03-01T21:14:25.978Z,95.50
2023-03-01T21:16:54.131Z,95.50
2023-03-01T21:19:24.505Z,95.50
2023-03-01T21:21:53.797Z,95.50
2023-03-01T21:24:23.199Z,95.50
2023-03-01T21:26:51.195Z,95.50
2023-03-01T21:29:23.984Z,95.50
2023-03-01T21:31:52.101Z,95.50
2023-03-01T21:34:21.732Z,95.50
2023-03-01T21:36:49.868Z,95.50
2023-03-01T21:39:17.946Z,95.50
2023-03-01T21:41:47.665Z,95.50
2023-03-01T21:44:17.878Z,95.50
2023-03-01T21:46:48.550Z,95.50
2023-03-01T21:49:32.543Z,95.50
2023-03-01T21:52:00.668Z,95.50
2023-03-01T21:54:29.042Z,95.50
2023-03-01T21:56:58.617Z,95.50
2023-03-01T21:59:27.033Z,95.50
2023-03-01T22:01:58.610Z,95.50
2023-03-01T22:04:26.897Z,95.50
2023-03-01T22:06:55.329Z,95.50
2023-03-01T22:09:24.860Z,95.50
2023-03-01T22:11:58.392Z,95.50
2023-03-01T22:14:27.828Z,95.50
2023-03-01T22:16:56.102Z,95.50
2023-03-01T22:19:24.496Z,95.50
2023-03-01T22:21:53.786Z,95.50
2023-03-01T22:24:24.702Z,95.50
2023-03-01T22:26:54.871Z,95.50
2023-03-01T22:29:26.110Z,95.50
2023-03-01T22:31:57.520Z,95.50
2023-03-01T22:34:26.004Z,95.50
2023-03-01T22:36:54.299Z,95.50
2023-03-01T22:39:23.204Z,95.50
2023-03-01T22:41:51.680Z,95.50
2023-03-01T22:44:22.928Z,95.50
2023-03-01T22:46:52.788Z,95.50
2023-03-01T22:49:22.491Z,95.50
2023-03-01T22:51:51.468Z,95.50
2023-03-01T22:54:20.922Z,95.50
2023-03-01T22:56:49.798Z,95.50
2023-03-01T22:59:23.045Z,95.50
2023-03-01T23:01:52.100Z,95.50
2023-03-01T23:04:23.248Z,95.50
2023-03-01T23:06:54.055Z,95.50
2023-03-01T23:09:25.823Z,95.50
2023-03-01T23:11:54.714Z,95.50
2023-03-01T23:14:23.168Z,95.50
2023-03-01T23:16:52.209Z,95.50
2023-03-01T23:19:21.948Z,95.50
2023-03-01T23:21:51.039Z,95.50
2023-03-01T23:24:21.373Z,95.50
2023-03-01T23:26:53.297Z,95.50
2023-03-01T23:29:22.217Z,95.50
2023-03-01T23:31:50.348Z,95.50
2023-03-01T23:34:19.001Z,95.50
2023-03-01T23:36:48.440Z,95.50
2023-03-01T23:39:16.567Z,95.50
2023-03-01T23:41:44.584Z,95.50
2023-03-01T23:44:17.216Z,95.50
2023-03-01T23:46:46.823Z,95.50
2023-03-01T23:49:16.994Z,95.50
2023-03-01T23:51:47.660Z,95.50
2023-03-01T23:54:18.919Z,95.50
2023-03-01T23:56:47.867Z,95.50
2023-03-01T23:59:17.889Z,95.50
